Time;durP1;ratioP1;P1;durP2;ratioP2;P2;SDS_P1;SDS_P2;PMS_P1;PMS_P2;Temp;Humidity;BMP_temperature;BMP_pressure;BME280_temperature;BME280_humidity;BME280_pressure;Samples;Min_cycle;Max_cycle;Signal;HPM_P1;HPM_P2
2021/04/07 00:02:19;;;;;;;3.72;3.00;;;;;;;3.08;56.61;99745.84;10315059;28;20064;-60
2021/04/07 00:07:20;;;;;;;2.90;2.60;;;;;;;3.46;55.50;99763.81;10300962;28;20452;-60
2021/04/07 00:12:21;;;;;;;4.60;2.70;;;;;;;3.03;56.12;99757.56;10301953;28;20085;-60
2021/04/07 00:17:22;;;;;;;2.88;2.20;;;;;;;2.73;56.62;99767.09;10309505;28;20050;-58
2021/04/07 00:22:23;;;;;;;3.05;2.20;;;;;;;2.91;54.73;99759.09;10313933;28;20061;-58
2021/04/07 00:27:27;;;;;;;3.10;2.20;;;;;;;2.67;52.71;99772.66;10312795;28;20495;-58
2021/04/07 00:32:28;;;;;;;3.42;2.40;;;;;;;2.21;53.24;99767.31;10306921;28;20050;-59
2021/04/07 00:37:29;;;;;;;5.20;2.30;;;;;;;2.08;54.33;99769.75;10310092;28;20083;-59
2021/04/07 00:42:34;;;;;;;3.47;2.38;;;;;;;2.07;54.20;99781.16;10303868;28;20149;-59
2021/04/07 00:47:35;;;;;;;2.67;1.98;;;;;;;2.52;53.12;99765.63;10305662;28;20057;-61
2021/04/07 00:52:37;;;;;;;2.90;2.33;;;;;;;2.57;53.51;99782.84;10303798;28;20058;-59
2021/04/07 00:57:45;;;;;;;4.82;2.35;;;;;;;2.74;53.71;99778.44;10301729;28;20130;-59
2021/04/07 01:02:51;;;;;;;3.40;2.75;;;;;;;2.91;53.01;99780.13;10310602;28;20603;-59
2021/04/07 01:07:54;;;;;;;4.47;3.00;;;;;;;2.89;53.43;99784.63;10305104;28;20050;-61
2021/04/07 01:12:56;;;;;;;3.88;2.97;;;;;;;2.91;53.80;99798.53;10306974;28;20062;-59
2021/04/07 01:17:57;;;;;;;4.15;2.58;;;;;;;3.03;53.40;99804.88;10294647;28;20141;-60
2021/04/07 01:23:01;;;;;;;6.30;3.42;;;;;;;2.99;54.22;99815.56;10315065;28;20068;-60
2021/04/07 01:28:02;;;;;;;3.95;3.42;;;;;;;3.18;53.60;99825.06;10318832;28;20046;-60
2021/04/07 01:33:04;;;;;;;5.45;4.10;;;;;;;2.77;54.62;99826.44;10319331;28;20053;-60
2021/04/07 01:38:05;;;;;;;4.15;3.75;;;;;;;2.75;54.64;99828.31;10303485;28;20864;-59
2021/04/07 01:43:06;;;;;;;4.32;3.78;;;;;;;2.60;54.82;99835.25;10304551;28;20042;-60
2021/04/07 01:48:08;;;;;;;6.10;3.50;;;;;;;2.54;53.38;99845.22;10311163;28;20112;-59
2021/04/07 01:53:10;;;;;;;3.35;3.03;;;;;;;2.65;52.97;99848.13;10315756;28;20113;-64
2021/04/07 01:58:11;;;;;;;6.18;3.25;;;;;;;2.78;52.60;99833.41;10306983;28;20045;-60
2021/04/07 02:03:12;;;;;;;3.95;3.10;;;;;;;2.92;51.93;99844.94;10309840;28;20074;-61
2021/04/07 02:08:13;;;;;;;3.67;3.38;;;;;;;2.80;52.19;99860.44;10300983;28;20062;-59
2021/04/07 02:13:14;;;;;;;5.00;3.20;;;;;;;2.91;52.86;99851.97;10310251;28;20383;-60
2021/04/07 02:18:15;;;;;;;5.82;3.92;;;;;;;3.12;52.04;99857.84;10326765;28;20050;-59
2021/04/07 02:23:16;;;;;;;4.25;3.00;;;;;;;2.90;52.73;99849.41;10304058;28;20128;-60
2021/04/07 02:28:17;;;;;;;4.72;3.63;;;;;;;3.16;52.60;99864.59;10307797;28;20065;-59
2021/04/07 02:33:19;;;;;;;4.85;3.88;;;;;;;3.26;52.50;99864.06;10315953;28;20062;-59
2021/04/07 02:38:20;;;;;;;5.88;5.22;;;;;;;3.39;52.71;99870.34;10301802;28;20058;-61
2021/04/07 02:43:21;;;;;;;4.72;4.15;;;;;;;3.13;53.12;99879.72;10315396;28;20069;-60
2021/04/07 02:48:21;;;;;;;5.13;4.63;;;;;;;3.13;53.70;99882.34;10317061;28;20411;-60
2021/04/07 02:53:22;;;;;;;7.80;3.92;;;;;;;3.00;52.74;99880.41;10315616;28;20058;-59
2021/04/07 02:58:23;;;;;;;5.90;4.13;;;;;;;3.18;52.37;99889.03;10308669;28;20061;-59
2021/04/07 03:03:24;;;;;;;6.28;4.30;;;;;;;3.23;52.02;99893.19;10328020;28;20050;-59
2021/04/07 03:08:25;;;;;;;5.72;4.07;;;;;;;3.19;51.07;99906.50;10303820;28;20042;-59
2021/04/07 03:13:26;;;;;;;5.25;3.72;;;;;;;3.34;49.64;99904.81;10303825;28;20053;-59
2021/04/07 03:18:27;;;;;;;4.47;3.47;;;;;;;3.41;50.18;99904.47;10303604;28;20133;-64
2021/04/07 03:23:28;;;;;;;6.03;3.40;;;;;;;3.08;49.99;99922.03;10304657;28;20517;-59
2021/04/07 03:28:29;;;;;;;5.10;3.75;;;;;;;3.23;51.00;99917.72;10326785;28;20057;-60
2021/04/07 03:33:34;;;;;;;5.80;4.25;;;;;;;3.25;50.92;99915.84;10315556;28;20062;-61
2021/04/07 03:38:35;;;;;;;6.07;3.33;;;;;;;3.42;49.90;99917.53;10305682;28;20128;-60
2021/04/07 03:43:37;;;;;;;4.70;3.13;;;;;;;3.38;49.99;99915.16;10308498;28;20619;-59
2021/04/07 03:48:38;;;;;;;5.43;3.60;;;;;;;3.40;49.99;99927.31;10304923;28;20101;-60
2021/04/07 03:53:39;;;;;;;6.25;4.10;;;;;;;3.38;50.58;99930.94;10340051;22;20095;-69
2021/04/07 03:58:40;;;;;;;8.73;4.47;;;;;;;3.40;51.04;99932.56;10344605;28;20053;-68
2021/04/07 04:03:42;;;;;;;7.25;4.22;;;;;;;3.41;51.18;99931.63;10352547;28;20060;-67
2021/04/07 04:08:43;;;;;;;6.47;3.90;;;;;;;3.22;51.90;99944.97;10351420;28;20061;-69
2021/04/07 04:13:44;;;;;;;7.40;3.88;;;;;;;3.18;52.05;99949.53;10357364;28;20050;-68
2021/04/07 04:18:45;;;;;;;6.90;3.47;;;;;;;3.02;52.97;99943.41;10363060;28;20045;-69
2021/04/07 04:23:46;;;;;;;7.50;3.58;;;;;;;3.09;52.82;99957.94;10353254;28;20069;-67
2021/04/07 04:28:47;;;;;;;6.78;2.92;;;;;;;3.27;51.91;99957.84;10378532;28;20042;-69
2021/04/07 04:33:49;;;;;;;5.72;3.00;;;;;;;3.35;50.82;99958.28;10354587;28;20061;-68
2021/04/07 04:38:50;;;;;;;7.20;2.58;;;;;;;3.39;50.41;99975.59;10352286;28;20050;-68
2021/04/07 04:43:51;;;;;;;6.00;2.53;;;;;;;3.32;50.70;99990.03;10356002;28;20050;-69
2021/04/07 04:48:51;;;;;;;8.90;3.55;;;;;;;3.30;51.84;99986.63;10357407;28;20049;-70
2021/04/07 04:53:53;;;;;;;8.07;2.58;;;;;;;2.96;53.29;99994.56;10377578;28;20081;-70
2021/04/07 04:58:54;;;;;;;7.47;2.67;;;;;;;3.10;53.66;99990.34;10393328;28;20717;-70
2021/04/07 05:03:55;;;;;;;8.60;2.42;;;;;;;3.09;53.24;100009.69;10359520;28;20133;-68
2021/04/07 05:08:56;;;;;;;5.20;2.28;;;;;;;3.10;53.84;100014.84;10350938;28;20107;-70
2021/04/07 05:13:56;;;;;;;5.28;2.17;;;;;;;2.89;54.02;100005.47;10373482;28;20038;-71
2021/04/07 05:18:58;;;;;;;4.63;2.20;;;;;;;3.11;53.29;100029.72;10369268;28;20061;-68
2021/04/07 05:23:59;;;;;;;4.38;2.00;;;;;;;3.11;53.33;100045.50;10354701;28;20112;-69
2021/04/07 05:29:00;;;;;;;5.95;2.53;;;;;;;3.25;52.31;100046.53;10367027;28;20050;-69
2021/04/07 05:34:01;;;;;;;5.28;1.98;;;;;;;3.18;52.26;100044.25;10381038;28;20046;-70
2021/04/07 05:39:03;;;;;;;3.70;1.80;;;;;;;3.00;52.87;100063.59;10386810;28;20116;-70
2021/04/07 05:44:04;;;;;;;5.35;1.80;;;;;;;3.06;53.26;100059.81;10348674;28;20099;-69
2021/04/07 05:49:05;;;;;;;5.85;2.33;;;;;;;3.37;52.72;100066.94;10352636;28;20046;-68
2021/04/07 05:54:06;;;;;;;5.90;1.88;;;;;;;3.69;51.64;100069.59;10347557;28;20058;-68
2021/04/07 05:59:07;;;;;;;5.18;2.20;;;;;;;3.80;51.33;100069.00;10348612;28;20058;-69
2021/04/07 06:04:08;;;;;;;5.38;1.65;;;;;;;3.85;58.49;100073.06;10345194;28;20591;-69
2021/04/07 06:09:09;;;;;;;2.72;1.58;;;;;;;3.92;50.64;100073.59;10343838;28;20053;-69
2021/04/07 06:14:10;;;;;;;7.10;1.90;;;;;;;3.52;51.10;100060.84;10364452;28;20054;-68
2021/04/07 06:19:11;;;;;;;3.05;1.70;;;;;;;3.28;51.88;100067.41;10344823;28;20060;-70
2021/04/07 06:24:12;;;;;;;3.22;1.42;;;;;;;3.35;51.97;100071.44;10350268;28;20061;-70
2021/04/07 06:29:13;;;;;;;7.43;1.58;;;;;;;3.41;51.71;100079.00;10350276;28;20053;-69
2021/04/07 06:34:14;;;;;;;3.53;1.80;;;;;;;3.19;52.46;100085.38;10349616;28;20584;-69
2021/04/07 06:39:15;;;;;;;5.90;1.85;;;;;;;3.54;52.28;100097.59;10382188;28;20112;-68
2021/04/07 06:44:18;;;;;;;4.70;2.00;;;;;;;3.44;52.31;100094.63;10365540;28;20050;-69
2021/04/07 06:49:19;;;;;;;4.07;2.50;;;;;;;3.78;51.53;100086.66;10379259;28;20053;-69
2021/04/07 06:54:22;;;;;;;5.13;1.45;;;;;;;3.99;50.89;100089.91;10353766;28;20050;-69
2021/04/07 06:59:23;;;;;;;3.63;1.80;;;;;;;3.78;51.69;100092.78;10354892;28;20132;-68
2021/04/07 07:04:23;;;;;;;2.58;1.33;;;;;;;3.61;52.18;100100.75;10371186;28;20054;-69
2021/04/07 07:09:24;;;;;;;7.15;1.92;;;;;;;3.60;52.78;100099.91;10355056;28;20073;-70
2021/04/07 07:14:25;;;;;;;4.40;1.98;;;;;;;3.89;51.98;100110.66;10357010;28;20053;-70
2021/04/07 07:19:31;;;;;;;5.28;2.20;;;;;;;3.80;52.35;100106.72;10360312;28;20053;-70
2021/04/07 07:24:37;;;;;;;6.03;1.85;;;;;;;3.86;52.41;100111.66;10370362;28;20053;-69
2021/04/07 07:29:38;;;;;;;3.78;1.55;;;;;;;3.77;52.72;100114.78;10354667;28;20792;-69
2021/04/07 07:34:39;;;;;;;3.80;1.70;;;;;;;3.88;52.68;100130.84;10353210;28;20145;-68
2021/04/07 07:39:40;;;;;;;4.00;1.83;;;;;;;3.90;53.13;100122.84;10354916;28;20135;-69
2021/04/07 07:44:41;;;;;;;4.65;1.88;;;;;;;3.89;55.18;100143.09;10353006;28;20463;-70
2021/04/07 07:49:53;;;;;;;4.65;2.42;;;;;;;3.85;56.60;100152.06;10357578;28;20053;-72
2021/04/07 07:54:55;;;;;;;5.57;2.00;;;;;;;3.60;57.81;100151.69;10349584;28;20057;-72
2021/04/07 08:00:07;;;;;;;3.53;2.22;;;;;;;3.68;57.85;100160.06;10347431;28;20476;-71
2021/04/07 08:05:18;;;;;;;2.92;1.73;;;;;;;3.67;59.32;100160.97;10368393;28;20050;-69
2021/04/07 08:10:19;;;;;;;6.70;3.65;;;;;;;3.67;59.32;100159.19;10376533;28;20065;-70
2021/04/07 08:15:20;;;;;;;17.05;9.55;;;;;;;3.65;59.35;100161.06;10357408;28;20562;-70
2021/04/07 08:20:21;;;;;;;2.97;2.00;;;;;;;3.64;58.46;100167.25;10368311;28;20045;-68
2021/04/07 08:25:23;;;;;;;5.18;2.92;;;;;;;3.72;58.23;100158.94;10381113;28;20137;-70
2021/04/07 08:30:25;;;;;;;4.13;2.08;;;;;;;4.06;56.87;100159.75;10382015;28;20072;-71
2021/04/07 08:35:27;;;;;;;4.57;3.17;;;;;;;4.00;56.73;100160.94;10372471;28;20049;-71
2021/04/07 08:40:43;;;;;;;5.20;2.65;;;;;;;4.02;56.28;100147.69;10357911;28;20045;-70
2021/04/07 08:45:46;;;;;;;4.18;2.38;;;;;;;4.29;55.28;100149.72;10344050;28;20390;-70
2021/04/07 08:51:09;;;;;;;4.95;3.47;;;;;;;4.28;55.24;100151.50;10344272;28;20061;-71
2021/04/07 08:56:24;;;;;;;4.82;2.20;;;;;;;4.72;53.89;100140.22;10342521;28;20077;-69
2021/04/07 09:01:32;;;;;;;3.53;1.52;;;;;;;5.04;52.13;100147.19;10345690;28;20127;-69
2021/04/07 09:06:34;;;;;;;3.35;1.70;;;;;;;4.87;52.35;100143.75;10345830;28;20542;-70
2021/04/07 09:11:37;;;;;;;1.92;1.55;;;;;;;4.95;51.98;100154.72;10344744;28;20138;-69
2021/04/07 09:16:40;;;;;;;4.57;2.40;;;;;;;4.83;52.49;100144.03;10343552;28;20523;-70
2021/04/07 09:21:53;;;;;;;2.30;1.33;;;;;;;4.70;52.59;100150.00;10366544;28;20053;-69
2021/04/07 09:26:56;;;;;;;3.95;1.23;;;;;;;4.89;51.72;100141.03;10354456;28;20432;-70
2021/04/07 09:31:57;;;;;;;2.33;1.90;;;;;;;5.14;50.29;100151.81;10346443;28;20128;-67
2021/04/07 09:36:58;;;;;;;3.25;1.55;;;;;;;5.29;49.91;100157.13;10344595;28;20060;-70
2021/04/07 09:41:59;;;;;;;3.45;1.95;;;;;;;5.37;50.52;100164.59;10347188;28;20050;-69
2021/04/07 09:47:01;;;;;;;7.15;2.78;;;;;;;4.79;53.11;100156.53;10353445;28;20058;-72
2021/04/07 09:52:02;;;;;;;4.68;1.98;;;;;;;4.53;54.94;100165.94;10361782;28;20049;-71
2021/04/07 09:57:04;;;;;;;4.07;2.38;;;;;;;4.49;57.56;100186.34;10347213;28;20131;-69
2021/04/07 10:02:08;;;;;;;5.72;1.98;;;;;;;4.71;56.02;100145.56;10343211;28;20104;-71
2021/04/07 10:07:10;;;;;;;4.20;2.42;;;;;;;4.87;53.50;100149.03;10342789;28;20050;-68
2021/04/07 10:12:12;;;;;;;4.32;2.22;;;;;;;5.00;52.97;100153.56;10342225;28;20108;-70
2021/04/07 10:17:16;;;;;;;2.80;1.33;;;;;;;5.05;50.18;100160.28;10344499;28;20078;-70
2021/04/07 10:22:26;;;;;;;4.75;2.72;;;;;;;5.30;50.21;100162.31;10341901;28;20045;-68
2021/04/07 10:27:27;;;;;;;3.25;2.15;;;;;;;5.71;49.13;100160.75;10342925;23;20065;-68
2021/04/07 10:32:28;;;;;;;4.50;1.92;;;;;;;5.57;49.23;100166.00;10306259;28;20140;-66
2021/04/07 10:37:30;;;;;;;3.40;2.00;;;;;;;5.28;50.80;100172.13;10324060;28;20042;-67
2021/04/07 10:42:31;;;;;;;4.03;2.05;;;;;;;4.86;52.70;100164.94;10317768;28;20053;-67
2021/04/07 10:47:37;;;;;;;5.72;2.38;;;;;;;4.59;54.36;100181.41;10314492;28;20133;-68
2021/04/07 10:52:40;;;;;;;4.07;1.95;;;;;;;4.60;55.68;100194.50;10296167;28;20051;-68
2021/04/07 10:57:47;;;;;;;2.65;1.80;;;;;;;4.62;56.53;100193.56;10293626;28;20129;-66
2021/04/07 11:02:48;;;;;;;7.25;2.58;;;;;;;4.66;57.27;100208.28;10306653;28;20153;-67
2021/04/07 11:08:03;;;;;;;6.22;2.50;;;;;;;4.46;57.45;100220.81;10292956;28;20467;-66
2021/04/07 11:13:04;;;;;;;6.80;2.03;;;;;;;4.31;57.57;100211.09;10313318;28;20188;-67
2021/04/07 11:18:06;;;;;;;3.72;1.88;;;;;;;4.46;57.21;100226.06;10290588;28;20191;-66
2021/04/07 11:23:12;;;;;;;6.38;2.00;;;;;;;4.46;57.35;100217.28;10318043;28;20423;-67
2021/04/07 11:28:20;;;;;;;3.95;2.20;;;;;;;4.55;56.70;100230.81;10299490;28;20132;-67
2021/04/07 11:33:24;;;;;;;4.75;1.75;;;;;;;4.34;56.35;100200.38;10324514;28;20571;-67
2021/04/07 11:49:06;;;;;;;4.05;1.85;;;;;;;6.18;51.45;100215.09;10316814;28;20080;-67
2021/04/07 11:54:13;;;;;;;4.57;2.22;;;;;;;5.49;52.64;100219.28;10304694;28;20053;-67
2021/04/07 11:59:16;;;;;;;4.95;1.67;;;;;;;5.45;52.69;100220.41;10323925;28;20155;-67
2021/04/07 12:04:18;;;;;;;5.07;1.38;;;;;;;5.82;50.52;100218.19;10321216;28;20050;-67
2021/04/07 12:09:19;;;;;;;4.75;1.40;;;;;;;5.43;50.95;100217.00;10325556;28;20081;-66
2021/04/07 12:14:20;;;;;;;3.72;1.30;;;;;;;5.19;51.58;100219.31;10319957;28;20061;-67
2021/04/07 12:19:22;;;;;;;3.08;1.60;;;;;;;5.05;51.99;100230.69;10305552;28;20069;-67
2021/04/07 12:24:23;;;;;;;2.70;1.40;;;;;;;5.19;51.72;100227.22;10303505;28;20081;-68
2021/04/07 12:29:24;;;;;;;2.58;1.30;;;;;;;5.07;52.26;100205.03;10299537;28;20058;-66
2021/04/07 12:34:26;;;;;;;3.38;1.30;;;;;;;5.32;52.07;100226.41;10304879;28;20890;-67
2021/04/07 12:39:27;;;;;;;1.45;1.20;;;;;;;5.46;51.49;100228.25;10320809;28;20549;-66
2021/04/07 12:44:28;;;;;;;1.92;1.25;;;;;;;5.50;51.44;100239.47;10318009;28;20100;-67
2021/04/07 12:49:29;;;;;;;2.17;1.20;;;;;;;5.37;51.43;100233.22;10321025;28;20046;-67
2021/04/07 12:54:30;;;;;;;2.50;0.82;;;;;;;5.65;50.70;100227.97;10321419;28;20129;-67
2021/04/07 12:59:31;;;;;;;2.25;0.70;;;;;;;6.26;49.79;100238.41;10286483;28;20055;-68
2021/04/07 13:04:32;;;;;;;2.65;1.05;;;;;;;6.34;50.08;100230.81;10315904;28;20050;-69
2021/04/07 13:09:33;;;;;;;1.67;1.08;;;;;;;5.86;51.52;100230.28;10319055;28;20045;-68
2021/04/07 13:14:34;;;;;;;1.98;1.00;;;;;;;5.60;52.56;100214.22;10318713;28;20062;-68
2021/04/07 13:19:35;;;;;;;2.10;1.27;;;;;;;5.45;55.08;100234.47;10304254;28;20053;-66
2021/04/07 13:24:36;;;;;;;2.13;1.13;;;;;;;5.25;58.39;100234.78;10321650;28;20058;-66
2021/04/07 13:29:37;;;;;;;3.80;1.60;;;;;;;5.01;60.81;100261.66;10308775;28;20047;-68
2021/04/07 13:35:00;;;;;;;3.25;1.88;;;;;;;4.68;62.94;100240.69;10296501;28;20763;-66
2021/04/07 13:40:09;;;;;;;2.38;2.03;;;;;;;4.59;64.68;100258.72;10317873;28;20153;-67
2021/04/07 13:45:10;;;;;;;3.25;1.63;;;;;;;4.48;64.91;100257.63;10316073;28;20153;-68
2021/04/07 13:50:14;;;;;;;1.80;1.60;;;;;;;4.23;66.05;100248.41;10319785;28;20125;-67
2021/04/07 13:55:18;;;;;;;3.30;1.98;;;;;;;4.23;67.74;100272.13;10299115;28;20176;-67
2021/04/07 14:00:19;;;;;;;2.50;1.60;;;;;;;3.89;69.80;100258.97;10291513;28;20549;-68
2021/04/07 14:05:21;;;;;;;3.40;2.20;;;;;;;3.96;70.20;100284.97;10299777;28;20060;-67
2021/04/07 14:10:22;;;;;;;2.83;2.20;;;;;;;3.80;72.08;100275.25;10318682;28;20104;-67
2021/04/07 14:15:24;;;;;;;3.35;2.85;;;;;;;3.89;71.45;100279.19;10319571;28;20408;-67
2021/04/07 14:20:25;;;;;;;2.97;2.13;;;;;;;3.71;72.87;100265.19;10318815;28;20077;-67
2021/04/07 14:25:29;;;;;;;3.03;2.47;;;;;;;3.76;73.18;100272.84;10320204;28;20554;-68
2021/04/07 14:30:40;;;;;;;3.13;2.50;;;;;;;3.86;72.53;100293.34;10315736;28;20057;-68
2021/04/07 14:35:42;;;;;;;2.83;2.53;;;;;;;3.91;73.57;100281.75;10298794;28;20042;-69
2021/04/07 14:40:44;;;;;;;3.15;2.80;;;;;;;4.02;73.54;100295.19;10323305;28;20054;-68
2021/04/07 14:45:46;;;;;;;3.22;2.92;;;;;;;4.12;72.90;100269.22;10315228;28;20057;-68
2021/04/07 14:50:49;;;;;;;3.20;2.90;;;;;;;4.27;72.14;100292.09;10299128;28;20069;-67
2021/04/07 14:55:54;;;;;;;3.50;2.83;;;;;;;4.37;72.81;100284.56;10327314;28;20476;-67
2021/04/07 15:00:54;;;;;;;3.47;3.15;;;;;;;4.92;72.73;100309.66;10324530;28;20416;-67
2021/04/07 15:05:55;;;;;;;3.53;3.22;;;;;;;4.93;71.92;100308.72;10318313;28;20050;-65
2021/04/07 15:10:57;;;;;;;3.58;2.88;;;;;;;4.82;73.33;100311.97;10307130;28;20061;-67
2021/04/07 15:15:58;;;;;;;4.43;3.10;;;;;;;4.84;73.29;100318.00;10322723;28;20050;-67
2021/04/07 15:21:00;;;;;;;4.88;3.03;;;;;;;4.81;73.38;100312.91;10330402;28;20058;-66
2021/04/07 15:26:11;;;;;;;4.28;2.88;;;;;;;4.71;72.78;100320.47;10326236;28;20413;-66
2021/04/07 15:31:15;;;;;;;5.00;2.63;;;;;;;4.86;72.62;100313.47;10326603;28;20042;-65
2021/04/07 15:36:16;;;;;;;5.38;3.30;;;;;;;4.96;71.84;100303.28;10305659;28;20085;-66
2021/04/07 15:41:17;;;;;;;4.10;2.90;;;;;;;4.93;70.52;100322.75;10327340;28;20094;-65
2021/04/07 15:46:19;;;;;;;5.90;3.30;;;;;;;5.13;70.54;100336.63;10309093;28;20496;-66
2021/04/07 15:51:22;;;;;;;6.82;3.03;;;;;;;5.26;69.63;100331.50;10325508;28;20571;-67
2021/04/07 15:56:27;;;;;;;7.88;4.00;;;;;;;5.45;69.55;100321.59;10320576;28;20141;-66
2021/04/07 16:01:28;;;;;;;8.52;3.90;;;;;;;5.24;68.28;100312.25;10293704;28;20125;-65
2021/04/07 16:06:29;;;;;;;6.18;3.00;;;;;;;5.32;67.89;100326.72;10304403;28;20066;-67
2021/04/07 16:11:32;;;;;;;4.65;2.90;;;;;;;5.04;68.50;100310.75;10325067;28;20463;-66
2021/04/07 16:16:33;;;;;;;7.97;4.20;;;;;;;5.03;67.82;100324.88;10321819;28;20117;-66
2021/04/07 16:21:35;;;;;;;8.65;5.13;;;;;;;5.12;67.66;100348.13;10316785;28;20046;-66
2021/04/07 16:26:36;;;;;;;12.07;6.28;;;;;;;5.19;66.38;100341.56;10320389;28;20512;-66
2021/04/07 16:31:37;;;;;;;10.93;5.55;;;;;;;5.30;66.73;100349.72;10303052;28;20090;-67
2021/04/07 16:36:38;;;;;;;9.45;4.07;;;;;;;5.18;65.90;100339.88;10322910;28;20054;-67
2021/04/07 16:41:40;;;;;;;9.45;3.25;;;;;;;5.16;65.34;100352.28;10319365;28;20062;-70
2021/04/07 16:46:41;;;;;;;5.75;3.55;;;;;;;5.18;65.73;100371.53;10327141;28;20050;-67
2021/04/07 16:51:42;;;;;;;8.82;4.25;;;;;;;5.09;65.06;100364.16;10329286;28;20058;-67
2021/04/07 16:56:43;;;;;;;7.28;3.90;;;;;;;5.08;65.61;100375.63;10355929;28;20057;-68
2021/04/07 17:01:44;;;;;;;7.80;3.00;;;;;;;5.20;65.50;100369.66;10321223;28;20335;-66
2021/04/07 17:06:45;;;;;;;9.30;3.33;;;;;;;5.30;65.10;100384.03;10325064;28;20069;-66
2021/04/07 17:11:47;;;;;;;6.10;3.20;;;;;;;5.22;64.13;100378.31;10301606;28;20578;-65
2021/04/07 17:16:48;;;;;;;5.90;3.63;;;;;;;5.32;63.64;100390.06;10318971;28;20771;-65
2021/04/07 17:21:49;;;;;;;6.72;3.42;;;;;;;5.14;63.08;100380.56;10316896;28;20518;-67
2021/04/07 17:26:50;;;;;;;6.93;3.60;;;;;;;5.10;62.84;100395.72;10323158;28;20054;-68
2021/04/07 17:31:51;;;;;;;5.72;2.85;;;;;;;5.19;62.20;100396.97;10319461;28;20411;-67
2021/04/07 17:36:52;;;;;;;6.28;3.63;;;;;;;5.07;61.80;100395.03;10317589;28;20398;-67
2021/04/07 17:41:53;;;;;;;5.15;3.13;;;;;;;4.98;61.82;100416.63;10319756;28;20062;-65
2021/04/07 17:46:54;;;;;;;5.15;2.58;;;;;;;4.95;61.75;100423.78;10319562;28;20123;-68
2021/04/07 17:51:55;;;;;;;5.07;3.40;;;;;;;4.88;62.08;100417.16;10320070;28;20069;-67
2021/04/07 17:56:56;;;;;;;7.55;4.88;;;;;;;5.06;62.23;100432.88;10319058;28;20062;-68
2021/04/07 18:01:57;;;;;;;6.82;3.00;;;;;;;5.12;61.37;100446.63;10319047;28;20058;-66
2021/04/07 18:06:58;;;;;;;7.43;3.10;;;;;;;5.12;61.88;100456.34;10295758;28;20571;-67
2021/04/07 18:11:59;;;;;;;9.00;4.40;;;;;;;4.90;61.20;100460.09;10292651;28;20064;-67
2021/04/07 18:17:05;;;;;;;6.15;2.88;;;;;;;5.07;61.50;100471.53;10321403;28;20124;-68
2021/04/07 18:22:07;;;;;;;9.00;3.28;;;;;;;5.16;59.57;100468.41;10314554;28;20586;-66
2021/04/07 18:27:10;;;;;;;6.90;2.65;;;;;;;4.99;60.17;100484.31;10304453;28;20061;-67
2021/04/07 18:32:11;;;;;;;5.95;2.67;;;;;;;4.96;60.26;100499.34;10320244;28;20125;-68
2021/04/07 18:37:13;;;;;;;6.82;2.97;;;;;;;4.94;59.32;100506.50;10318893;28;20074;-68
2021/04/07 18:42:14;;;;;;;8.15;3.00;;;;;;;5.00;59.31;100504.47;10321052;28;20140;-68
2021/04/07 18:47:15;;;;;;;6.00;2.55;;;;;;;5.01;58.22;100514.94;10317921;28;20053;-65
2021/04/07 18:52:16;;;;;;;8.07;3.55;;;;;;;5.02;57.57;100519.28;10312043;28;20474;-66
2021/04/07 18:57:18;;;;;;;8.55;4.03;;;;;;;5.07;57.89;100527.78;10313988;28;20250;-66
2021/04/07 19:02:20;;;;;;;7.65;3.00;;;;;;;4.95;57.05;100534.59;10318136;28;20125;-65
2021/04/07 19:07:21;;;;;;;6.20;3.00;;;;;;;4.96;56.53;100549.47;10320645;28;20598;-66
2021/04/07 19:12:22;;;;;;;7.35;2.58;;;;;;;4.76;56.04;100549.69;10324119;28;20121;-67
2021/04/07 19:17:23;;;;;;;7.10;3.22;;;;;;;4.83;55.68;100561.59;10331489;28;20038;-68
2021/04/07 19:22:24;;;;;;;7.70;3.05;;;;;;;4.98;55.42;100570.50;10350172;28;20054;-66
2021/04/07 19:27:26;;;;;;;6.53;2.58;;;;;;;5.00;55.11;100573.06;10321741;28;20064;-67
2021/04/07 19:32:27;;;;;;;8.90;2.33;;;;;;;4.82;55.03;100580.13;10300663;28;20078;-67
2021/04/07 19:37:28;;;;;;;5.00;2.70;;;;;;;4.83;59.05;100598.53;10291894;28;20134;-67
2021/04/07 19:42:28;;;;;;;4.50;2.53;;;;;;;4.56;60.41;100591.09;10323010;28;20073;-66
2021/04/07 19:47:36;;;;;;;6.53;2.53;;;;;;;4.36;61.61;100596.50;10324912;28;20054;-66
2021/04/07 19:52:37;;;;;;;5.53;2.30;;;;;;;4.52;61.16;100600.09;10316740;28;20045;-67
2021/04/07 19:57:38;;;;;;;6.82;2.53;;;;;;;4.57;60.69;100607.75;10323797;28;20058;-66
2021/04/07 20:02:39;;;;;;;5.80;2.72;;;;;;;4.52;60.47;100589.53;10306148;28;20054;-66
2021/04/07 20:07:40;;;;;;;4.68;3.00;;;;;;;4.74;60.92;100609.53;10309170;28;20046;-66
2021/04/07 20:12:41;;;;;;;4.85;2.80;;;;;;;4.98;60.38;100617.16;10306657;28;20046;-64
2021/04/07 20:17:46;;;;;;;7.07;3.22;;;;;;;5.05;59.99;100629.09;10289641;28;20066;-68
2021/04/07 20:22:47;;;;;;;7.03;3.05;;;;;;;5.21;60.17;100629.13;10313116;28;20420;-67
2021/04/07 20:27:48;;;;;;;13.73;6.80;;;;;;;5.15;57.50;100619.78;10309389;28;20086;-66
2021/04/07 20:32:50;;;;;;;6.90;3.33;;;;;;;4.97;58.14;100616.31;10311027;28;20046;-66
2021/04/07 20:37:51;;;;;;;6.25;3.15;;;;;;;5.00;57.69;100620.56;10308366;28;20074;-65
2021/04/07 20:42:52;;;;;;;9.48;3.55;;;;;;;5.01;57.31;100617.00;10307120;28;20057;-67
2021/04/07 20:47:53;;;;;;;8.63;3.15;;;;;;;4.82;56.76;100612.66;10288747;28;20054;-66
2021/04/07 20:52:54;;;;;;;6.32;2.70;;;;;;;4.72;53.67;100637.78;10289057;28;20046;-66
2021/04/07 20:57:55;;;;;;;2.58;1.98;;;;;;;4.34;53.01;100648.41;10309258;28;20054;-67
2021/04/07 21:02:58;;;;;;;3.83;2.15;;;;;;;4.39;52.70;100649.06;10309170;28;20065;-66
2021/04/07 21:07:59;;;;;;;6.07;2.65;;;;;;;4.41;51.06;100655.09;10302462;28;20057;-66
2021/04/07 21:13:00;;;;;;;4.38;2.55;;;;;;;4.16;50.82;100651.03;10285305;28;20070;-67
2021/04/07 21:18:04;;;;;;;7.13;2.33;;;;;;;4.15;51.33;100654.56;10303993;28;20051;-65
2021/04/07 21:23:05;;;;;;;3.00;2.20;;;;;;;4.32;50.42;100666.94;10293630;28;20061;-67
2021/04/07 21:28:06;;;;;;;4.90;2.42;;;;;;;4.19;49.55;100666.69;10308899;28;20042;-66
2021/04/07 21:33:06;;;;;;;4.57;2.55;;;;;;;3.99;48.11;100670.22;10288351;28;20137;-67
2021/04/07 21:38:07;;;;;;;8.85;3.22;;;;;;;3.91;47.89;100663.63;10305074;28;20054;-66
2021/04/07 21:43:09;;;;;;;4.80;2.60;;;;;;;3.88;47.48;100662.00;10288585;28;20079;-66
2021/04/07 21:48:11;;;;;;;3.70;2.20;;;;;;;3.99;48.40;100670.22;10302161;28;20529;-66
2021/04/07 21:53:12;;;;;;;6.78;2.67;;;;;;;3.97;48.89;100660.72;10302805;28;20134;-68
2021/04/07 21:58:13;;;;;;;3.88;2.13;;;;;;;3.90;47.86;100662.75;10310905;28;20113;-66
2021/04/07 22:03:14;;;;;;;3.90;1.83;;;;;;;4.11;48.01;100674.09;10283383;28;20077;-67
2021/04/07 22:08:16;;;;;;;5.95;2.40;;;;;;;4.28;48.05;100685.59;10287706;28;20144;-66
2021/04/07 22:13:18;;;;;;;5.20;2.10;;;;;;;3.93;48.29;100696.88;10302120;28;20097;-67
2021/04/07 22:18:28;;;;;;;5.05;2.33;;;;;;;3.90;48.31;100683.84;10305084;28;20479;-67
2021/04/07 22:23:29;;;;;;;5.97;2.45;;;;;;;3.73;48.85;100695.16;10300703;28;20125;-66
2021/04/07 22:28:30;;;;;;;5.32;2.53;;;;;;;3.81;48.61;100693.00;10303187;28;20101;-68
2021/04/07 22:33:47;;;;;;;7.32;2.15;;;;;;;3.71;49.90;100694.38;10305090;28;20062;-65
2021/04/07 22:38:49;;;;;;;6.43;2.63;;;;;;;3.67;49.83;100708.59;10289696;28;20501;-67
2021/04/07 22:43:50;;;;;;;3.17;1.90;;;;;;;3.82;50.02;100700.00;10306023;28;20715;-67
2021/04/07 22:48:52;;;;;;;8.00;2.35;;;;;;;3.73;50.10;100700.41;10279925;28;20066;-70
2021/04/07 22:53:53;;;;;;;4.85;2.20;;;;;;;3.89;49.89;100711.97;10304891;28;20082;-69
2021/04/07 22:58:54;;;;;;;4.82;3.25;;;;;;;3.95;49.93;100712.59;10300944;28;20120;-66
2021/04/07 23:03:56;;;;;;;3.88;2.17;;;;;;;3.97;49.46;100700.22;10303760;28;20066;-66
2021/04/07 23:08:56;;;;;;;4.63;2.38;;;;;;;3.90;49.47;100723.34;10303206;28;20437;-67
2021/04/07 23:13:57;;;;;;;6.05;2.33;;;;;;;3.79;49.57;100705.41;10306094;28;20360;-68
2021/04/07 23:18:58;;;;;;;5.30;2.28;;;;;;;4.05;49.75;100740.22;10312087;28;20057;-67
2021/04/07 23:23:59;;;;;;;4.63;2.33;;;;;;;4.18;49.61;100725.56;10301911;28;20061;-67
2021/04/07 23:29:00;;;;;;;7.47;2.90;;;;;;;4.31;49.24;100733.78;10294249;28;20073;-67
2021/04/07 23:34:02;;;;;;;6.28;2.65;;;;;;;4.46;48.76;100720.78;10311863;28;20058;-66
2021/04/07 23:39:03;;;;;;;7.82;3.05;;;;;;;4.22;49.51;100724.50;10310639;28;20185;-67